Time;durP1;ratioP1;P1;durP2;ratioP2;P2;SDS_P1;SDS_P2;PMS_P1;PMS_P2;Temp;Humidity;BMP_temperature;BMP_pressure;BME280_temperature;BME280_humidity;BME280_pressure;Samples;Min_cycle;Max_cycle;Signal;HPM_P1;HPM_P2
2021/12/04 00:08:28;;;;;;;15.80;9.50;;;;;;;-4.02;70.28;98712.50;418880;1312;141629;-59
2021/12/04 00:18:35;;;;;;;12.90;8.50;;;;;;;-4.02;70.49;98707.87;418691;1312;142776;-61
2021/12/04 00:28:41;;;;;;;13.70;8.20;;;;;;;-4.10;70.55;98690.92;419670;1313;142118;-60
2021/12/04 00:49:13;;;;;;;13.40;8.30;;;;;;;-4.14;71.10;98655.94;418880;1313;127350;-61
2021/12/04 00:59:20;;;;;;;12.00;7.30;;;;;;;-4.13;71.19;98650.29;419425;1313;141089;-61
2021/12/04 01:09:27;;;;;;;13.90;7.80;;;;;;;-4.19;71.31;98637.92;420039;1312;141417;-61
2021/12/04 01:19:31;;;;;;;;;;;;;;;-4.21;71.34;98623.61;419224;1313;142015;-60
2021/12/04 01:29:37;;;;;;;14.30;8.10;;;;;;;-4.17;71.34;98607.29;419596;1313;130094;-61
2021/12/04 01:39:43;;;;;;;8.50;6.30;;;;;;;-4.07;71.32;98593.77;433479;1312;143470;-61
2021/12/04 01:49:51;;;;;;;10.60;6.40;;;;;;;-4.00;71.31;98589.52;431418;1312;142619;-63
2021/12/04 01:59:57;;;;;;;10.60;6.00;;;;;;;-3.95;71.16;98580.52;433971;1313;141574;-62
2021/12/04 02:10:07;;;;;;;9.40;6.00;;;;;;;-3.91;71.05;98582.33;427496;1312;142398;-60
2021/12/04 02:20:18;;;;;;;9.20;5.70;;;;;;;-3.86;71.09;98576.73;427348;1312;142817;-61
2021/12/04 02:30:26;;;;;;;11.60;7.30;;;;;;;-3.74;71.11;98560.41;432341;1313;142362;-61
2021/12/04 02:40:32;;;;;;;11.80;7.10;;;;;;;-3.58;71.14;98548.94;434653;1313;141893;-62
2021/12/04 02:50:39;;;;;;;11.70;6.90;;;;;;;-3.52;71.19;98528.27;434125;1313;142365;-62
2021/12/04 03:00:47;;;;;;;;;;;;;;;-3.41;71.31;98509.01;432477;1313;142395;-63
2021/12/04 03:10:55;;;;;;;9.50;7.20;;;;;;;-3.25;71.32;98498.35;434379;1310;128725;-62
2021/12/04 03:21:03;;;;;;;10.50;5.90;;;;;;;-3.08;71.18;98492.93;432291;1312;141520;-62
2021/12/04 03:31:13;;;;;;;9.10;6.10;;;;;;;-2.95;71.19;98475.13;434647;1309;141355;-62
2021/12/04 03:41:19;;;;;;;7.20;6.20;;;;;;;-2.79;71.09;98461.02;434514;1312;167701;-62
2021/12/04 03:51:25;;;;;;;7.40;4.80;;;;;;;-2.64;71.07;98461.98;432091;1310;184077;-62
2021/12/04 04:01:32;;;;;;;7.30;5.20;;;;;;;-2.52;70.74;98449.80;429105;1314;142718;-61
2021/12/04 04:11:39;;;;;;;8.90;5.60;;;;;;;-2.40;70.64;98445.16;423703;1313;141949;-61
2021/12/04 04:21:43;;;;;;;;;;;;;;;-2.30;70.56;98432.89;432104;1312;143471;-62
2021/12/04 04:31:49;;;;;;;5.70;4.60;;;;;;;-2.22;70.14;98422.34;434877;1313;131692;-63
2021/12/04 05:13:02;;;;;;;10.50;5.10;;;;;;;-1.77;69.53;98384.40;420339;1313;142551;-62
2021/12/04 05:23:10;;;;;;;8.10;5.40;;;;;;;-1.68;69.15;98377.26;434284;1309;197448;-63
2021/12/04 05:33:16;;;;;;;7.00;4.70;;;;;;;-1.56;68.86;98370.16;433535;1313;143385;-63
2021/12/04 05:43:24;;;;;;;7.80;4.40;;;;;;;-1.46;68.56;98371.70;431511;1313;141931;-62
2021/12/04 05:53:41;;;;;;;9.60;5.00;;;;;;;-1.41;68.22;98367.08;434617;1312;141499;-62
2021/12/04 06:03:48;;;;;;;7.30;6.10;;;;;;;-1.30;68.23;98368.23;433242;1312;142357;-62
2021/12/04 06:13:54;;;;;;;6.90;4.70;;;;;;;-1.22;68.00;98369.52;430917;1310;141924;-62
2021/12/04 06:23:59;;;;;;;5.70;5.10;;;;;;;-1.17;67.95;98370.36;417835;1312;142144;-62
2021/12/04 06:34:05;;;;;;;6.00;4.50;;;;;;;-1.16;67.81;98367.08;434629;1309;142065;-62
2021/12/04 06:44:11;;;;;;;8.80;6.00;;;;;;;-1.24;67.85;98361.31;434661;1312;141259;-62
2021/12/04 06:54:19;;;;;;;11.20;6.00;;;;;;;-1.27;68.02;98353.88;433878;1312;143675;-62
2021/12/04 07:04:31;;;;;;;6.90;5.00;;;;;;;-1.10;68.05;98347.45;434666;1309;142671;-62
2021/12/04 07:14:38;;;;;;;8.40;5.10;;;;;;;-0.92;67.73;98350.57;428275;1313;142788;-62
2021/12/04 07:24:44;;;;;;;10.50;6.90;;;;;;;-0.82;67.66;98347.45;432525;1310;143393;-63
2021/12/04 07:34:49;;;;;;;8.00;6.30;;;;;;;-0.69;67.43;98347.14;433310;1312;142436;-63
2021/12/04 07:44:57;;;;;;;11.10;5.80;;;;;;;-0.51;67.27;98337.86;433919;1312;141982;-62
2021/12/04 07:55:03;;;;;;;11.00;7.00;;;;;;;-0.43;66.72;98333.06;434047;1312;142552;-62
2021/12/04 08:05:10;;;;;;;9.50;6.50;;;;;;;-0.33;66.65;98318.77;430287;1313;141602;-62
2021/12/04 08:15:16;;;;;;;;;;;;;;;-0.21;66.38;98320.67;433863;1313;142639;-63
2021/12/04 08:25:23;;;;;;;10.30;5.80;;;;;;;-0.05;65.91;98321.25;433426;1312;184377;-63
2021/12/04 08:35:35;;;;;;;11.80;6.90;;;;;;;0.10;65.56;98316.86;433256;1313;144951;-62
2021/12/04 08:45:43;;;;;;;18.80;9.30;;;;;;;0.26;65.30;98326.38;434007;1309;141789;-62
2021/12/04 08:55:49;;;;;;;11.70;7.20;;;;;;;0.45;64.77;98326.07;432433;1313;141309;-62
2021/12/04 09:05:56;;;;;;;24.80;12.70;;;;;;;0.65;64.50;98327.31;428350;1308;141003;-63
2021/12/04 09:16:02;;;;;;;13.60;7.00;;;;;;;0.89;63.90;98322.29;434505;1312;140760;-64
2021/12/04 09:26:13;;;;;;;8.70;6.60;;;;;;;1.01;63.69;98325.53;424402;1312;140308;-63
2021/12/04 10:18:10;;;;;;;10.30;6.50;;;;;;;1.32;62.50;98288.61;432110;1312;141548;-61
2021/12/04 10:38:57;;;;;;;10.70;7.90;;;;;;;1.41;62.04;98275.77;415669;1317;10001981;-64
2021/12/04 10:49:08;;;;;;;11.60;6.90;;;;;;;1.45;62.16;98266.30;427584;1311;141263;-62
2021/12/04 10:59:28;;;;;;;9.50;6.90;;;;;;;1.49;62.04;98259.86;424204;1315;140838;-62
2021/12/04 11:51:16;;;;;;;15.10;9.20;;;;;;;1.49;62.20;98234.86;433679;1312;141328;-65
2021/12/04 12:01:31;;;;;;;12.40;7.80;;;;;;;1.45;62.12;98241.25;430991;1312;140832;-62
2021/12/04 12:11:46;;;;;;;16.60;9.80;;;;;;;1.38;62.28;98240.23;433227;1314;140929;-66
2021/12/04 12:21:58;;;;;;;12.30;8.10;;;;;;;1.35;62.52;98247.47;432659;1308;140752;-62
2021/12/04 12:32:19;;;;;;;11.00;6.90;;;;;;;1.32;63.23;98251.70;423704;1313;140637;-60
2021/12/04 12:42:29;;;;;;;6.20;5.40;;;;;;;1.23;64.30;98254.38;433803;1313;142446;-67
2021/12/04 12:52:42;;;;;;;6.70;4.30;;;;;;;0.94;67.08;98254.87;433147;1310;142003;-66
2021/12/04 13:13:27;;;;;;;10.90;7.70;;;;;;;0.47;70.53;98256.78;434580;1309;141248;-60
2021/12/04 13:23:34;;;;;;;12.80;7.50;;;;;;;0.42;71.19;98253.57;429645;1314;142001;-59
2021/12/04 13:33:45;;;;;;;16.50;11.50;;;;;;;0.35;71.55;98243.52;433718;1314;141815;-59
2021/12/04 13:43:56;;;;;;;20.40;13.20;;;;;;;0.31;72.06;98237.15;433516;1314;141957;-59
2021/12/04 13:54:02;;;;;;;20.10;14.40;;;;;;;0.24;72.24;98239.18;433737;1313;141687;-60
2021/12/04 14:04:15;;;;;;;25.50;16.90;;;;;;;0.19;72.47;98233.16;434436;1315;144353;-60
2021/12/04 14:14:24;;;;;;;23.20;14.70;;;;;;;0.10;72.63;98231.87;433200;1315;142727;-59
2021/12/04 14:24:33;;;;;;;23.30;14.90;;;;;;;-0.00;72.98;98235.56;433346;1315;147653;-59
2021/12/04 14:34:40;;;;;;;22.30;13.70;;;;;;;-0.16;73.54;98239.46;420013;1314;143744;-60
2021/12/04 14:44:53;;;;;;;16.90;13.60;;;;;;;-0.25;74.12;98236.24;433570;1313;142905;-60
2021/12/04 14:55:00;;;;;;;28.20;19.40;;;;;;;-0.39;74.62;98229.94;422825;1313;207605;-61
2021/12/04 15:05:08;;;;;;;22.80;15.10;;;;;;;-0.56;75.11;98218.23;432919;1313;142569;-59
2021/12/04 15:15:19;;;;;;;29.30;21.10;;;;;;;-0.79;75.34;98218.79;420601;1313;142026;-58
2021/12/04 15:25:30;;;;;;;30.90;22.10;;;;;;;-1.08;75.81;98228.02;433733;1313;143527;-60
2021/12/04 15:35:45;;;;;;;31.60;22.50;;;;;;;-1.24;76.21;98233.75;434522;1313;142100;-60
2021/12/04 15:46:08;;;;;;;19.70;16.10;;;;;;;-1.20;76.76;98231.54;425784;1313;142864;-62
2021/12/04 15:56:15;;;;;;;21.80;15.20;;;;;;;-1.11;76.95;98241.49;427427;1313;142255;-62
2021/12/04 16:06:22;;;;;;;28.00;20.30;;;;;;;-1.00;76.99;98252.23;429500;1313;142905;-62
2021/12/04 16:16:29;;;;;;;24.20;18.50;;;;;;;-0.86;77.24;98252.56;419211;1312;141253;-61
2021/12/04 16:26:38;;;;;;;26.60;19.00;;;;;;;-0.84;77.15;98249.05;433178;1312;143664;-66
2021/12/04 16:37:03;;;;;;;28.40;19.80;;;;;;;-0.83;77.26;98242.33;433739;1312;141533;-66
2021/12/04 16:47:10;;;;;;;31.40;22.90;;;;;;;-0.85;77.40;98233.98;434552;1312;142289;-66
2021/12/04 16:57:34;;;;;;;42.10;29.50;;;;;;;-0.89;77.26;98237.23;433667;1313;143770;-66
2021/12/04 17:07:41;;;;;;;39.70;21.50;;;;;;;-0.98;77.37;98224.02;430943;1313;142270;-66
2021/12/04 17:17:48;;;;;;;26.50;18.90;;;;;;;-1.09;77.05;98219.77;416589;1312;145226;-65
2021/12/04 17:27:56;;;;;;;29.20;19.00;;;;;;;-1.21;77.20;98223.84;433846;1313;145598;-67
2021/12/04 17:38:04;;;;;;;24.60;17.00;;;;;;;-1.26;77.38;98232.95;433066;1313;141997;-65
2021/12/04 17:48:10;;;;;;;25.10;16.10;;;;;;;-1.20;77.27;98239.11;433550;1312;143001;-67
2021/12/04 17:58:15;;;;;;;;;;;;;;;-1.16;77.38;98236.34;434624;1307;143755;-67
2021/12/04 18:08:23;;;;;;;27.40;17.70;;;;;;;-1.16;77.16;98236.18;424312;1313;128922;-68
2021/12/04 18:18:33;;;;;;;31.40;19.00;;;;;;;-1.17;77.41;98238.82;433888;1312;141797;-67
2021/12/04 18:28:40;;;;;;;32.20;19.60;;;;;;;-1.13;77.41;98239.15;433834;1314;144314;-66
2021/12/04 18:38:47;;;;;;;32.60;20.00;;;;;;;-1.07;77.10;98233.09;432331;1313;142707;-65
2021/12/04 18:48:54;;;;;;;35.70;21.70;;;;;;;-1.03;76.71;98208.90;426527;1312;141852;-67
2021/12/04 18:58:58;;;;;;;;;;;;;;;-1.01;76.40;98197.65;434675;1313;141721;-66
2021/12/04 19:09:08;;;;;;;27.60;18.20;;;;;;;-1.06;75.87;98190.66;431695;1313;129687;-65
2021/12/04 19:19:14;;;;;;;27.60;18.40;;;;;;;-1.13;75.67;98188.85;429059;1312;143445;-66
2021/12/04 19:29:22;;;;;;;31.60;17.80;;;;;;;-1.19;75.40;98187.20;434610;1313;142555;-66
2021/12/04 20:00:28;;;;;;;33.90;20.90;;;;;;;-1.59;75.15;98192.13;433468;1313;146705;-66
2021/12/04 20:21:02;;;;;;;34.90;21.60;;;;;;;-1.98;74.83;98188.34;431851;1313;142866;-66
2021/12/04 20:31:14;;;;;;;34.80;22.20;;;;;;;-2.12;74.72;98195.37;434610;1312;143260;-66
2021/12/04 21:13:06;;;;;;;30.70;19.50;;;;;;;-2.32;73.76;98202.38;433566;1312;141859;-65
2021/12/04 21:54:28;;;;;;;28.20;17.20;;;;;;;-2.01;72.57;98151.23;431753;1313;143109;-64
2021/12/04 22:15:17;;;;;;;34.20;19.70;;;;;;;-2.05;72.49;98125.68;418104;1312;141975;-60
2021/12/04 22:56:53;;;;;;;30.00;20.00;;;;;;;-2.38;72.81;98131.43;420013;1313;142763;-63
2021/12/04 23:17:35;;;;;;;31.10;19.80;;;;;;;-2.51;73.11;98109.95;421637;1313;141632;-69
2021/12/04 23:38:27;;;;;;;32.00;19.40;;;;;;;-2.14;73.26;98113.98;424108;1309;142542;-68
